sensor_id;sensor_type;location;lat;lon;timestamp;pressure;altitude;pressure_sealevel;temperature;humidity
40245;BME280;25963;42.694;23.600;2022-07-22T00:01:44;95250.38;;;23.59;46.09
40245;BME280;25963;42.694;23.600;2022-07-22T00:04:10;95260.69;;;23.38;46.56
40245;BME280;25963;42.694;23.600;2022-07-22T00:06:35;95253.84;;;23.46;46.61
40245;BME280;25963;42.694;23.600;2022-07-22T00:09:02;95256.38;;;23.84;45.73
40245;BME280;25963;42.694;23.600;2022-07-22T00:11:27;95254.91;;;24.05;45.84
40245;BME280;25963;42.694;23.600;2022-07-22T00:14:08;95253.50;;;24.08;45.72
40245;BME280;25963;42.694;23.600;2022-07-22T00:16:33;95263.16;;;23.67;45.96
40245;BME280;25963;42.694;23.600;2022-07-22T00:18:59;95264.09;;;23.44;46.98
40245;BME280;25963;42.694;23.600;2022-07-22T00:21:24;95263.94;;;23.68;46.23
40245;BME280;25963;42.694;23.600;2022-07-22T00:23:50;95268.09;;;23.46;47.00
40245;BME280;25963;42.694;23.600;2022-07-22T00:26:15;95270.63;;;23.24;47.47
40245;BME280;25963;42.694;23.600;2022-07-22T00:28:41;95262.59;;;23.05;47.86
40245;BME280;25963;42.694;23.600;2022-07-22T00:31:06;95272.38;;;23.15;47.50
40245;BME280;25963;42.694;23.600;2022-07-22T00:33:31;95272.72;;;22.94;47.87
40245;BME280;25963;42.694;23.600;2022-07-22T00:35:57;95275.53;;;22.84;48.22
40245;BME280;25963;42.694;23.600;2022-07-22T00:38:22;95262.81;;;23.09;47.60
40245;BME280;25963;42.694;23.600;2022-07-22T00:40:48;95267.19;;;23.51;46.74
40245;BME280;25963;42.694;23.600;2022-07-22T00:43:13;95268.94;;;22.95;47.93
40245;BME280;25963;42.694;23.600;2022-07-22T00:45:39;95267.97;;;23.05;48.09
40245;BME280;25963;42.694;23.600;2022-07-22T00:48:05;95260.03;;;23.14;47.73
40245;BME280;25963;42.694;23.600;2022-07-22T00:50:31;95265.56;;;23.22;47.11
40245;BME280;25963;42.694;23.600;2022-07-22T00:52:56;95262.75;;;22.57;49.13
40245;BME280;25963;42.694;23.600;2022-07-22T00:55:22;95272.19;;;22.73;48.94
40245;BME280;25963;42.694;23.600;2022-07-22T00:57:47;95270.00;;;22.75;48.78
40245;BME280;25963;42.694;23.600;2022-07-22T01:00:16;95266.88;;;23.06;48.08
40245;BME280;25963;42.694;23.600;2022-07-22T01:02:42;95258.38;;;22.99;47.91
40245;BME280;25963;42.694;23.600;2022-07-22T01:05:08;95263.91;;;22.51;49.54
40245;BME280;25963;42.694;23.600;2022-07-22T01:07:33;95258.09;;;22.82;48.88
40245;BME280;25963;42.694;23.600;2022-07-22T01:09:59;95257.16;;;22.72;48.79
40245;BME280;25963;42.694;23.600;2022-07-22T01:12:24;95259.47;;;22.41;49.41
40245;BME280;25963;42.694;23.600;2022-07-22T01:14:50;95256.13;;;22.87;48.05
40245;BME280;25963;42.694;23.600;2022-07-22T01:17:16;95252.63;;;22.87;47.85
40245;BME280;25963;42.694;23.600;2022-07-22T01:19:42;95250.66;;;22.92;47.84
40245;BME280;25963;42.694;23.600;2022-07-22T01:22:07;95252.06;;;22.90;47.94
40245;BME280;25963;42.694;23.600;2022-07-22T01:24:33;95254.75;;;22.52;48.95
40245;BME280;25963;42.694;23.600;2022-07-22T01:26:58;95257.28;;;22.24;49.85
40245;BME280;25963;42.694;23.600;2022-07-22T01:29:24;95256.78;;;22.60;48.98
40245;BME280;25963;42.694;23.600;2022-07-22T01:31:50;95258.09;;;22.82;48.67
40245;BME280;25963;42.694;23.600;2022-07-22T01:34:15;95259.13;;;22.86;48.55
40245;BME280;25963;42.694;23.600;2022-07-22T01:36:41;95257.53;;;22.47;49.59
40245;BME280;25963;42.694;23.600;2022-07-22T01:39:06;95261.28;;;22.27;50.34
40245;BME280;25963;42.694;23.600;2022-07-22T01:41:32;95252.50;;;22.40;50.15
40245;BME280;25963;42.694;23.600;2022-07-22T01:43:57;95254.16;;;22.36;50.18
40245;BME280;25963;42.694;23.600;2022-07-22T01:46:23;95253.09;;;22.56;49.80
40245;BME280;25963;42.694;23.600;2022-07-22T01:48:50;95253.22;;;22.84;49.34
40245;BME280;25963;42.694;23.600;2022-07-22T01:51:16;95257.28;;;23.00;48.75
40245;BME280;25963;42.694;23.600;2022-07-22T01:53:41;95250.63;;;22.97;48.29
40245;BME280;25963;42.694;23.600;2022-07-22T01:56:06;95245.28;;;22.73;48.74
40245;BME280;25963;42.694;23.600;2022-07-22T01:58:32;95249.25;;;22.62;49.12
40245;BME280;25963;42.694;23.600;2022-07-22T02:00:57;95247.34;;;22.44;49.70
40245;BME280;25963;42.694;23.600;2022-07-22T02:03:23;95253.25;;;22.65;49.34
40245;BME280;25963;42.694;23.600;2022-07-22T02:05:48;95253.72;;;22.67;49.28
40245;BME280;25963;42.694;23.600;2022-07-22T02:08:14;95255.03;;;22.69;49.19
40245;BME280;25963;42.694;23.600;2022-07-22T02:10:40;95257.75;;;22.50;49.75
40245;BME280;25963;42.694;23.600;2022-07-22T02:13:05;95268.56;;;22.64;49.79
40245;BME280;25963;42.694;23.600;2022-07-22T02:15:31;95261.78;;;22.67;49.57
40245;BME280;25963;42.694;23.600;2022-07-22T02:17:57;95257.09;;;22.77;49.01
40245;BME280;25963;42.694;23.600;2022-07-22T02:20:23;95257.44;;;22.71;48.96
40245;BME280;25963;42.694;23.600;2022-07-22T02:22:48;95249.44;;;22.85;48.77
40245;BME280;25963;42.694;23.600;2022-07-22T02:25:14;95256.09;;;23.25;48.00
40245;BME280;25963;42.694;23.600;2022-07-22T02:27:40;95258.00;;;23.06;49.32
40245;BME280;25963;42.694;23.600;2022-07-22T02:30:07;95262.31;;;23.39;48.37
40245;BME280;25963;42.694;23.600;2022-07-22T02:32:33;95261.31;;;23.49;47.29
40245;BME280;25963;42.694;23.600;2022-07-22T02:34:59;95259.81;;;23.57;49.13
40245;BME280;25963;42.694;23.600;2022-07-22T02:37:25;95267.97;;;23.38;49.49
40245;BME280;25963;42.694;23.600;2022-07-22T02:39:51;95268.81;;;23.52;48.82
40245;BME280;25963;42.694;23.600;2022-07-22T02:42:16;95273.59;;;23.55;49.29
40245;BME280;25963;42.694;23.600;2022-07-22T02:44:42;95276.75;;;23.43;49.27
40245;BME280;25963;42.694;23.600;2022-07-22T02:47:07;95265.81;;;23.40;49.44
40245;BME280;25963;42.694;23.600;2022-07-22T02:49:33;95271.44;;;23.24;48.20
40245;BME280;25963;42.694;23.600;2022-07-22T02:51:58;95272.81;;;23.22;48.51
40245;BME280;25963;42.694;23.600;2022-07-22T02:54:24;95267.06;;;23.29;49.21
40245;BME280;25963;42.694;23.600;2022-07-22T02:56:49;95262.78;;;23.41;49.00
40245;BME280;25963;42.694;23.600;2022-07-22T02:59:15;95270.63;;;23.24;49.93
40245;BME280;25963;42.694;23.600;2022-07-22T03:01:40;95270.25;;;23.31;49.14
40245;BME280;25963;42.694;23.600;2022-07-22T03:04:06;95264.19;;;23.06;48.65
40245;BME280;25963;42.694;23.600;2022-07-22T03:06:32;95266.66;;;22.84;49.94
40245;BME280;25963;42.694;23.600;2022-07-22T03:08:57;95260.81;;;23.00;49.47
40245;BME280;25963;42.694;23.600;2022-07-22T03:11:22;95271.84;;;22.99;49.62
40245;BME280;25963;42.694;23.600;2022-07-22T03:13:48;95266.97;;;23.01;50.48
40245;BME280;25963;42.694;23.600;2022-07-22T03:16:13;95273.09;;;23.20;49.03
40245;BME280;25963;42.694;23.600;2022-07-22T03:18:39;95273.78;;;23.12;49.12
40245;BME280;25963;42.694;23.600;2022-07-22T03:21:04;95267.31;;;23.13;48.90
40245;BME280;25963;42.694;23.600;2022-07-22T03:23:30;95266.72;;;23.49;47.92
40245;BME280;25963;42.694;23.600;2022-07-22T03:25:56;95271.59;;;23.47;47.65
40245;BME280;25963;42.694;23.600;2022-07-22T03:28:22;95281.94;;;23.40;47.79
40245;BME280;25963;42.694;23.600;2022-07-22T03:30:48;95285.81;;;23.34;48.35
40245;BME280;25963;42.694;23.600;2022-07-22T03:33:13;95282.16;;;22.92;48.56
40245;BME280;25963;42.694;23.600;2022-07-22T03:35:39;95280.53;;;22.91;49.46
40245;BME280;25963;42.694;23.600;2022-07-22T03:38:04;95280.63;;;23.37;48.83
40245;BME280;25963;42.694;23.600;2022-07-22T03:40:30;95276.84;;;23.38;48.15
40245;BME280;25963;42.694;23.600;2022-07-22T03:42:55;95283.19;;;23.29;48.97
40245;BME280;25963;42.694;23.600;2022-07-22T03:45:21;95290.63;;;23.51;48.55
40245;BME280;25963;42.694;23.600;2022-07-22T03:47:46;95282.03;;;23.35;48.71
40245;BME280;25963;42.694;23.600;2022-07-22T03:50:11;95286.81;;;23.71;48.70
40245;BME280;25963;42.694;23.600;2022-07-22T03:52:37;95287.13;;;24.10;48.00
40245;BME280;25963;42.694;23.600;2022-07-22T03:55:04;95289.41;;;24.58;47.46
40245;BME280;25963;42.694;23.600;2022-07-22T03:57:30;95290.69;;;24.75;45.50
40245;BME280;25963;42.694;23.600;2022-07-22T03:59:55;95297.72;;;24.62;48.19
40245;BME280;25963;42.694;23.600;2022-07-22T04:02:21;95294.94;;;24.53;48.89
40245;BME280;25963;42.694;23.600;2022-07-22T04:04:46;95293.72;;;24.59;49.98
40245;BME280;25963;42.694;23.600;2022-07-22T04:07:12;95291.66;;;24.79;45.29
40245;BME280;25963;42.694;23.600;2022-07-22T04:09:37;95295.59;;;25.63;45.08
40245;BME280;25963;42.694;23.600;2022-07-22T04:12:03;95287.13;;;27.10;40.28
40245;BME280;25963;42.694;23.600;2022-07-22T04:14:29;95284.63;;;28.34;37.98
40245;BME280;25963;42.694;23.600;2022-07-22T04:16:54;95283.09;;;29.38;38.23
40245;BME280;25963;42.694;23.600;2022-07-22T04:19:20;95292.56;;;30.71;38.92
40245;BME280;25963;42.694;23.600;2022-07-22T04:21:45;95287.22;;;31.84;34.38
40245;BME280;25963;42.694;23.600;2022-07-22T04:24:10;95277.53;;;33.01;33.96
40245;BME280;25963;42.694;23.600;2022-07-22T04:26:36;95284.09;;;33.55;30.00
40245;BME280;25963;42.694;23.600;2022-07-22T04:29:03;95289.38;;;34.09;32.07
40245;BME280;25963;42.694;23.600;2022-07-22T04:31:28;95286.94;;;34.77;28.99
40245;BME280;25963;42.694;23.600;2022-07-22T04:33:54;95294.50;;;35.48;27.48
40245;BME280;25963;42.694;23.600;2022-07-22T04:36:19;95292.91;;;36.14;29.19
40245;BME280;25963;42.694;23.600;2022-07-22T04:38:45;95290.63;;;36.78;27.15
40245;BME280;25963;42.694;23.600;2022-07-22T04:41:10;95298.69;;;37.12;26.00
40245;BME280;25963;42.694;23.600;2022-07-22T04:43:36;95298.00;;;37.30;25.02
40245;BME280;25963;42.694;23.600;2022-07-22T04:46:01;95300.53;;;37.78;26.89
40245;BME280;25963;42.694;23.600;2022-07-22T04:48:26;95299.06;;;38.27;25.27
40245;BME280;25963;42.694;23.600;2022-07-22T04:50:52;95301.41;;;38.82;23.72
40245;BME280;25963;42.694;23.600;2022-07-22T04:53:17;95302.94;;;39.01;24.26
40245;BME280;25963;42.694;23.600;2022-07-22T04:55:44;95308.81;;;39.21;24.04
40245;BME280;25963;42.694;23.600;2022-07-22T04:58:09;95311.19;;;39.22;23.17
40245;BME280;25963;42.694;23.600;2022-07-22T05:00:35;95317.47;;;39.23;22.59
40245;BME280;25963;42.694;23.600;2022-07-22T05:03:00;95321.78;;;39.38;22.98
40245;BME280;25963;42.694;23.600;2022-07-22T05:05:26;95312.34;;;39.36;22.38
40245;BME280;25963;42.694;23.600;2022-07-22T05:07:51;95318.16;;;39.56;21.40
40245;BME280;25963;42.694;23.600;2022-07-22T05:10:17;95312.59;;;39.70;22.00
40245;BME280;25963;42.694;23.600;2022-07-22T05:12:42;95324.00;;;39.72;21.60
40245;BME280;25963;42.694;23.600;2022-07-22T05:15:08;95319.66;;;39.75;21.82
40245;BME280;25963;42.694;23.600;2022-07-22T05:17:33;95324.41;;;39.70;22.09
40245;BME280;25963;42.694;23.600;2022-07-22T05:20:02;95319.41;;;39.37;22.03
40245;BME280;25963;42.694;23.600;2022-07-22T05:22:27;95311.97;;;39.16;21.74
40245;BME280;25963;42.694;23.600;2022-07-22T05:24:53;95321.44;;;39.29;20.42
40245;BME280;25963;42.694;23.600;2022-07-22T05:27:18;95323.00;;;39.12;22.17
40245;BME280;25963;42.694;23.600;2022-07-22T05:29:43;95326.97;;;39.04;22.36
40245;BME280;25963;42.694;23.600;2022-07-22T05:32:09;95323.44;;;39.03;22.33
40245;BME280;25963;42.694;23.600;2022-07-22T05:34:34;95330.91;;;39.07;21.95
40245;BME280;25963;42.694;23.600;2022-07-22T05:37:00;95328.53;;;39.09;22.18
40245;BME280;25963;42.694;23.600;2022-07-22T05:39:25;95324.19;;;39.29;21.72
40245;BME280;25963;42.694;23.600;2022-07-22T05:41:51;95329.72;;;39.29;22.00
40245;BME280;25963;42.694;23.600;2022-07-22T05:44:16;95332.81;;;39.27;22.23
40245;BME280;25963;42.694;23.600;2022-07-22T05:46:42;95331.34;;;39.01;22.45
40245;BME280;25963;42.694;23.600;2022-07-22T05:49:07;95327.81;;;38.90;22.10
40245;BME280;25963;42.694;23.600;2022-07-22T05:51:33;95336.88;;;38.51;22.90
40245;BME280;25963;42.694;23.600;2022-07-22T05:53:59;95324.25;;;38.93;22.27
40245;BME280;25963;42.694;23.600;2022-07-22T05:56:27;95330.53;;;39.01;22.05
40245;BME280;25963;42.694;23.600;2022-07-22T05:58:53;95334.09;;;38.55;22.25
40245;BME280;25963;42.694;23.600;2022-07-22T06:01:18;95327.81;;;38.40;23.03
40245;BME280;25963;42.694;23.600;2022-07-22T06:03:43;95325.44;;;38.85;22.15
40245;BME280;25963;42.694;23.600;2022-07-22T06:06:09;95321.81;;;39.20;22.63
40245;BME280;25963;42.694;23.600;2022-07-22T06:08:35;95326.63;;;38.55;21.88
40245;BME280;25963;42.694;23.600;2022-07-22T06:11:01;95327.41;;;38.95;23.38
40245;BME280;25963;42.694;23.600;2022-07-22T06:13:27;95321.81;;;39.31;23.08
40245;BME280;25963;42.694;23.600;2022-07-22T06:15:52;95323.06;;;39.05;22.45
40245;BME280;25963;42.694;23.600;2022-07-22T06:18:18;95325.34;;;39.35;23.32
40245;BME280;25963;42.694;23.600;2022-07-22T06:20:44;95325.69;;;39.48;23.37
40245;BME280;25963;42.694;23.600;2022-07-22T06:23:09;95326.13;;;39.25;23.01
40245;BME280;25963;42.694;23.600;2022-07-22T06:25:35;95320.72;;;38.89;22.43
40245;BME280;25963;42.694;23.600;2022-07-22T06:28:01;95322.59;;;39.28;21.34
40245;BME280;25963;42.694;23.600;2022-07-22T06:30:27;95320.69;;;38.96;21.87
40245;BME280;25963;42.694;23.600;2022-07-22T06:32:53;95324.13;;;39.43;21.11
40245;BME280;25963;42.694;23.600;2022-07-22T06:35:19;95332.75;;;39.56;20.03
40245;BME280;25963;42.694;23.600;2022-07-22T06:37:44;95322.66;;;39.10;22.51
40245;BME280;25963;42.694;23.600;2022-07-22T06:40:10;95315.44;;;39.48;22.76
40245;BME280;25963;42.694;23.600;2022-07-22T06:42:36;95322.50;;;39.53;22.01
40245;BME280;25963;42.694;23.600;2022-07-22T06:45:02;95315.38;;;39.59;21.82
40245;BME280;25963;42.694;23.600;2022-07-22T06:47:28;95315.50;;;39.23;23.13
40245;BME280;25963;42.694;23.600;2022-07-22T06:49:53;95317.72;;;39.64;22.11
40245;BME280;25963;42.694;23.600;2022-07-22T06:52:19;95324.09;;;39.51;22.62
40245;BME280;25963;42.694;23.600;2022-07-22T06:54:44;95316.22;;;39.45;22.70
40245;BME280;25963;42.694;23.600;2022-07-22T06:57:09;95321.88;;;38.92;22.42
40245;BME280;25963;42.694;23.600;2022-07-22T06:59:36;95318.66;;;39.33;21.67
40245;BME280;25963;42.694;23.600;2022-07-22T07:02:01;95321.03;;;39.34;22.83
40245;BME280;25963;42.694;23.600;2022-07-22T07:04:27;95318.66;;;39.22;22.76
40245;BME280;25963;42.694;23.600;2022-07-22T07:06:52;95324.28;;;38.57;21.65
40245;BME280;25963;42.694;23.600;2022-07-22T07:09:18;95319.94;;;38.56;23.58
40245;BME280;25963;42.694;23.600;2022-07-22T07:11:43;95326.59;;;38.77;23.48
40245;BME280;25963;42.694;23.600;2022-07-22T07:14:09;95323.88;;;38.70;24.33
40245;BME280;25963;42.694;23.600;2022-07-22T07:16:34;95321.09;;;38.80;23.39
40245;BME280;25963;42.694;23.600;2022-07-22T07:18:59;95327.41;;;38.88;22.77
40245;BME280;25963;42.694;23.600;2022-07-22T07:21:25;95323.09;;;38.87;22.25
40245;BME280;25963;42.694;23.600;2022-07-22T07:23:51;95327.38;;;38.27;24.29
40245;BME280;25963;42.694;23.600;2022-07-22T07:26:16;95321.09;;;38.70;23.59
40245;BME280;25963;42.694;23.600;2022-07-22T07:28:41;95320.28;;;38.23;23.80
40245;BME280;25963;42.694;23.600;2022-07-22T07:31:07;95320.31;;;38.58;23.58
40245;BME280;25963;42.694;23.600;2022-07-22T07:33:33;95325.84;;;38.69;23.13
40245;BME280;25963;42.694;23.600;2022-07-22T07:36:00;95317.19;;;38.49;22.47
40245;BME280;25963;42.694;23.600;2022-07-22T07:38:25;95322.69;;;38.49;23.57
40245;BME280;25963;42.694;23.600;2022-07-22T07:40:50;95320.31;;;38.44;23.71
40245;BME280;25963;42.694;23.600;2022-07-22T07:43:16;95321.09;;;38.84;23.58
40245;BME280;25963;42.694;23.600;2022-07-22T07:45:41;95313.22;;;38.79;22.89
40245;BME280;25963;42.694;23.600;2022-07-22T07:48:07;95308.50;;;38.79;24.97
40245;BME280;25963;42.694;23.600;2022-07-22T07:50:33;95315.22;;;38.43;22.87
40245;BME280;25963;42.694;23.600;2022-07-22T07:52:58;95321.50;;;38.61;22.93
40245;BME280;25963;42.694;23.600;2022-07-22T07:55:24;95316.38;;;38.81;23.08
40245;BME280;25963;42.694;23.600;2022-07-22T07:57:50;95315.56;;;38.77;25.11
40245;BME280;25963;42.694;23.600;2022-07-22T08:00:19;95317.97;;;38.75;23.13
40245;BME280;25963;42.694;23.600;2022-07-22T08:02:45;95315.97;;;38.79;23.36
40245;BME280;25963;42.694;23.600;2022-07-22T08:05:11;95318.78;;;38.54;22.89
40245;BME280;25963;42.694;23.600;2022-07-22T08:07:37;95323.44;;;39.07;23.56
40245;BME280;25963;42.694;23.600;2022-07-22T08:10:04;95319.13;;;38.95;22.82
40245;BME280;25963;42.694;23.600;2022-07-22T08:12:30;95328.47;;;39.44;22.25
40245;BME280;25963;42.694;23.600;2022-07-22T08:14:55;95321.41;;;39.25;23.25
40245;BME280;25963;42.694;23.600;2022-07-22T08:17:21;95321.03;;;39.13;22.32
40245;BME280;25963;42.694;23.600;2022-07-22T08:19:46;95317.19;;;38.56;22.56
40245;BME280;25963;42.694;23.600;2022-07-22T08:22:12;95315.22;;;38.89;22.82
40245;BME280;25963;42.694;23.600;2022-07-22T08:24:37;95310.81;;;39.10;23.41
40245;BME280;25963;42.694;23.600;2022-07-22T08:27:03;95303.00;;;38.69;21.34
40245;BME280;25963;42.694;23.600;2022-07-22T08:29:29;95309.56;;;39.39;22.59
40245;BME280;25963;42.694;23.600;2022-07-22T08:31:54;95317.72;;;39.64;23.17
40245;BME280;25963;42.694;23.600;2022-07-22T08:34:20;95314.78;;;38.94;20.34
40245;BME280;25963;42.694;23.600;2022-07-22T08:36:45;95318.66;;;39.29;21.28
40245;BME280;25963;42.694;23.600;2022-07-22T08:39:10;95324.53;;;39.38;21.83
40245;BME280;25963;42.694;23.600;2022-07-22T08:41:37;95320.06;;;39.66;21.39
40245;BME280;25963;42.694;23.600;2022-07-22T08:44:04;95322.59;;;39.35;21.68
40245;BME280;25963;42.694;23.600;2022-07-22T08:46:30;95311.94;;;39.37;22.95
40245;BME280;25963;42.694;23.600;2022-07-22T08:48:56;95312.28;;;39.50;20.86
40245;BME280;25963;42.694;23.600;2022-07-22T08:51:23;95313.81;;;39.58;22.39
40245;BME280;25963;42.694;23.600;2022-07-22T08:53:49;95310.50;;;39.92;22.97
40245;BME280;25963;42.694;23.600;2022-07-22T08:56:14;95311.69;;;39.91;20.43
40245;BME280;25963;42.694;23.600;2022-07-22T08:58:40;95306.75;;;40.24;23.22
40245;BME280;25963;42.694;23.600;2022-07-22T09:01:14;95307.38;;;40.46;22.14
40245;BME280;25963;42.694;23.600;2022-07-22T09:03:47;95305.06;;;40.86;21.79
40245;BME280;25963;42.694;23.600;2022-07-22T09:06:18;95308.00;;;41.09;21.45
40245;BME280;25963;42.694;23.600;2022-07-22T09:08:50;95304.38;;;40.74;21.01
40245;BME280;25963;42.694;23.600;2022-07-22T09:11:21;95307.34;;;40.94;19.55
40245;BME280;25963;42.694;23.600;2022-07-22T09:13:47;95312.28;;;40.27;19.87
40245;BME280;25963;42.694;23.600;2022-07-22T09:16:13;95303.94;;;40.79;20.71
40245;BME280;25963;42.694;23.600;2022-07-22T09:18:50;95302.34;;;40.33;19.76
40245;BME280;25963;42.694;23.600;2022-07-22T09:21:16;95307.88;;;40.33;21.52
40245;BME280;25963;42.694;23.600;2022-07-22T09:23:42;95306.25;;;40.84;20.54
40245;BME280;25963;42.694;23.600;2022-07-22T09:26:09;95313.19;;;40.62;19.80
40245;BME280;25963;42.694;23.600;2022-07-22T09:28:34;95313.53;;;41.09;19.65
40245;BME280;25963;42.694;23.600;2022-07-22T09:31:00;95307.69;;;40.55;20.04
40245;BME280;25963;42.694;23.600;2022-07-22T09:33:26;95308.78;;;40.68;20.71
40245;BME280;25963;42.694;23.600;2022-07-22T09:35:52;95304.00;;;40.72;19.92
40245;BME280;25963;42.694;23.600;2022-07-22T09:38:29;95312.53;;;40.44;20.18
40245;BME280;25963;42.694;23.600;2022-07-22T09:40:58;95314.53;;;39.80;19.32
40245;BME280;25963;42.694;23.600;2022-07-22T09:43:24;95313.13;;;40.69;19.31
40245;BME280;25963;42.694;23.600;2022-07-22T09:45:53;95314.50;;;39.84;19.91
40245;BME280;25963;42.694;23.600;2022-07-22T09:48:20;95303.75;;;40.00;19.56
40245;BME280;25963;42.694;23.600;2022-07-22T09:50:47;95311.50;;;39.42;19.84
40245;BME280;25963;42.694;23.600;2022-07-22T09:53:17;95299.81;;;38.92;20.18
40245;BME280;25963;42.694;23.600;2022-07-22T09:55:43;95301.59;;;40.26;21.13
40245;BME280;25963;42.694;23.600;2022-07-22T09:58:08;95295.78;;;40.65;18.48
40245;BME280;25963;42.694;23.600;2022-07-22T10:00:35;95299.75;;;40.60;19.11
40245;BME280;25963;42.694;23.600;2022-07-22T10:03:04;95306.03;;;40.65;18.43
40245;BME280;25963;42.694;23.600;2022-07-22T10:05:39;95298.75;;;41.23;20.13
40245;BME280;25963;42.694;23.600;2022-07-22T10:08:06;95295.13;;;41.94;18.21
40245;BME280;25963;42.694;23.600;2022-07-22T10:10:33;95290.47;;;41.84;17.89
40245;BME280;25963;42.694;23.600;2022-07-22T10:13:00;95302.00;;;41.79;18.96
40245;BME280;25963;42.694;23.600;2022-07-22T10:15:27;95280.41;;;41.67;18.14
40245;BME280;25963;42.694;23.600;2022-07-22T10:17:59;95283.69;;;40.45;19.08
40245;BME280;25963;42.694;23.600;2022-07-22T10:20:27;95279.19;;;40.65;18.54
40245;BME280;25963;42.694;23.600;2022-07-22T10:22:58;95286.13;;;40.80;19.81
40245;BME280;25963;42.694;23.600;2022-07-22T10:25:26;95284.84;;;40.47;16.52
40245;BME280;25963;42.694;23.600;2022-07-22T10:33:03;95294.09;;;40.30;15.56
40245;BME280;25963;42.694;23.600;2022-07-22T10:35:29;95281.59;;;40.63;15.84
40245;BME280;25963;42.694;23.600;2022-07-22T10:37:57;95275.41;;;40.90;15.79
40245;BME280;25963;42.694;23.600;2022-07-22T10:43:27;95282.34;;;40.15;15.88
40245;BME280;25963;42.694;23.600;2022-07-22T10:45:58;95285.97;;;40.01;15.45
40245;BME280;25963;42.694;23.600;2022-07-22T10:51:27;95278.50;;;40.50;17.33
40245;BME280;25963;42.694;23.600;2022-07-22T10:53:55;95280.31;;;40.71;15.64
40245;BME280;25963;42.694;23.600;2022-07-22T10:59:15;95277.84;;;41.18;15.47
40245;BME280;25963;42.694;23.600;2022-07-22T11:01:43;95276.72;;;40.29;15.34
40245;BME280;25963;42.694;23.600;2022-07-22T11:04:18;95279.97;;;40.13;16.73
40245;BME280;25963;42.694;23.600;2022-07-22T11:06:46;95275.69;;;40.05;16.32
40245;BME280;25963;42.694;23.600;2022-07-22T11:09:13;95270.50;;;41.01;15.75
40245;BME280;25963;42.694;23.600;2022-07-22T11:14:29;95277.56;;;40.23;15.49
40245;BME280;25963;42.694;23.600;2022-07-22T11:17:03;95278.28;;;40.30;16.65
40245;BME280;25963;42.694;23.600;2022-07-22T11:19:30;95266.59;;;40.08;16.95
40245;BME280;25963;42.694;23.600;2022-07-22T11:21:59;95269.13;;;40.41;17.51
40245;BME280;25963;42.694;23.600;2022-07-22T11:24:27;95273.00;;;40.47;17.65
40245;BME280;25963;42.694;23.600;2022-07-22T11:26:54;95263.00;;;40.11;15.76
40245;BME280;25963;42.694;23.600;2022-07-22T11:32:00;95271.56;;;40.31;16.22
40245;BME280;25963;42.694;23.600;2022-07-22T11:34:26;95265.75;;;40.15;15.62
40245;BME280;25963;42.694;23.600;2022-07-22T11:36:54;95271.75;;;40.03;17.06
40245;BME280;25963;42.694;23.600;2022-07-22T11:39:28;95272.50;;;40.10;17.53
40245;BME280;25963;42.694;23.600;2022-07-22T11:41:56;95277.47;;;39.70;18.27
40245;BME280;25963;42.694;23.600;2022-07-22T11:44:24;95271.59;;;40.28;17.42
40245;BME280;25963;42.694;23.600;2022-07-22T11:46:51;95275.59;;;40.20;18.47
40245;BME280;25963;42.694;23.600;2022-07-22T11:49:19;95261.97;;;40.47;18.76
40245;BME280;25963;42.694;23.600;2022-07-22T11:51:45;95273.28;;;40.18;17.75
40245;BME280;25963;42.694;23.600;2022-07-22T11:54:12;95280.75;;;40.14;17.12
40245;BME280;25963;42.694;23.600;2022-07-22T11:56:38;95280.34;;;40.15;17.56
40245;BME280;25963;42.694;23.600;2022-07-22T11:59:05;95275.53;;;39.60;17.14
40245;BME280;25963;42.694;23.600;2022-07-22T12:01:33;95268.63;;;40.01;17.26
40245;BME280;25963;42.694;23.600;2022-07-22T12:04:03;95272.69;;;39.82;17.42
40245;BME280;25963;42.694;23.600;2022-07-22T12:06:29;95271.63;;;40.24;17.41
40245;BME280;25963;42.694;23.600;2022-07-22T12:09:08;95281.31;;;39.87;17.85
40245;BME280;25963;42.694;23.600;2022-07-22T12:11:35;95262.47;;;40.34;17.25
40245;BME280;25963;42.694;23.600;2022-07-22T12:14:17;95267.47;;;40.47;17.15
40245;BME280;25963;42.694;23.600;2022-07-22T12:16:52;95261.13;;;40.50;16.95
40245;BME280;25963;42.694;23.600;2022-07-22T12:19:18;95253.16;;;40.59;16.44
40245;BME280;25963;42.694;23.600;2022-07-22T12:24:36;95257.13;;;40.58;17.14
40245;BME280;25963;42.694;23.600;2022-07-22T12:27:10;95254.75;;;40.60;17.08
40245;BME280;25963;42.694;23.600;2022-07-22T12:37:28;95266.78;;;40.39;17.06
40245;BME280;25963;42.694;23.600;2022-07-22T12:40:07;95265.22;;;39.79;17.49
40245;BME280;25963;42.694;23.600;2022-07-22T12:42:35;95251.41;;;39.79;16.52
40245;BME280;25963;42.694;23.600;2022-07-22T12:45:05;95259.72;;;39.71;16.97
40245;BME280;25963;42.694;23.600;2022-07-22T12:50:36;95263.72;;;40.26;15.70
40245;BME280;25963;42.694;23.600;2022-07-22T12:53:05;95265.25;;;40.31;16.60
40245;BME280;25963;42.694;23.600;2022-07-22T12:55:33;95260.16;;;40.71;15.98
40245;BME280;25963;42.694;23.600;2022-07-22T12:57:59;95255.38;;;40.78;16.71
40245;BME280;25963;42.694;23.600;2022-07-22T13:00:31;95252.22;;;40.76;16.10
40245;BME280;25963;42.694;23.600;2022-07-22T13:02:57;95251.31;;;40.87;16.22
40245;BME280;25963;42.694;23.600;2022-07-22T13:05:24;95257.56;;;40.04;17.49
40245;BME280;25963;42.694;23.600;2022-07-22T13:07:49;95263.22;;;40.38;16.10
40245;BME280;25963;42.694;23.600;2022-07-22T13:10:16;95249.75;;;39.92;17.32
40245;BME280;25963;42.694;23.600;2022-07-22T13:12:42;95262.06;;;39.80;16.60
40245;BME280;25963;42.694;23.600;2022-07-22T13:15:09;95256.47;;;39.03;16.98
40245;BME280;25963;42.694;23.600;2022-07-22T13:17:35;95256.44;;;39.07;16.90
40245;BME280;25963;42.694;23.600;2022-07-22T13:20:02;95262.47;;;39.75;16.62